Time;durP1;ratioP1;P1;durP2;ratioP2;P2;SDS_P1;SDS_P2;PMS_P1;PMS_P2;Temp;Humidity;BMP_temperature;BMP_pressure;BME280_temperature;BME280_humidity;BME280_pressure;Samples;Min_cycle;Max_cycle;Signal;HPM_P1;HPM_P2
2022/12/11 00:01:16;;;;;;;5.27;4.60;;;;;;;;;;5093647;28;20806;-73
2022/12/11 00:03:43;;;;;;;7.60;3.83;;;;;;;;;;5093413;28;20984;-73
2022/12/11 00:06:12;;;;;;;5.13;3.70;;;;;;;;;;5092196;28;20789;-73
2022/12/11 00:08:39;;;;;;;9.73;6.90;;;;;;;;;;5092787;28;20454;-73
2022/12/11 00:11:10;;;;;;;4.00;3.27;;;;;;;;;;5085594;28;20461;-73
2022/12/11 00:13:37;;;;;;;4.33;3.10;;;;;;;;;;5092856;28;20499;-74
2022/12/11 00:16:04;;;;;;;7.50;5.03;;;;;;;;;;5092090;28;20452;-73
2022/12/11 00:18:31;;;;;;;8.50;4.10;;;;;;;;;;5092780;28;20457;-73
2022/12/11 00:21:01;;;;;;;6.60;4.17;;;;;;;;;;5091710;28;20444;-73
2022/12/11 00:23:28;;;;;;;8.63;3.80;;;;;;;;;;5092778;28;20477;-73
2022/12/11 00:25:55;;;;;;;7.20;3.47;;;;;;;;;;5091536;28;20460;-73
2022/12/11 00:28:24;;;;;;;9.60;5.80;;;;;;;;;;5091672;28;20460;-73
2022/12/11 00:30:51;;;;;;;14.77;7.23;;;;;;;;;;5091383;28;20449;-72
2022/12/11 00:33:18;;;;;;;6.13;5.47;;;;;;;;;;5092484;28;20904;-73
2022/12/11 00:35:46;;;;;;;3.40;2.50;;;;;;;;;;5092639;28;20942;-73
2022/12/11 00:38:15;;;;;;;4.50;3.67;;;;;;;;;;5092811;28;20474;-73
2022/12/11 00:40:42;;;;;;;8.67;3.67;;;;;;;;;;5092263;28;20445;-73
2022/12/11 00:43:09;;;;;;;19.07;4.30;;;;;;;;;;5091536;28;21066;-73
2022/12/11 00:45:38;;;;;;;5.57;3.20;;;;;;;;;;5092648;28;20450;-73
2022/12/11 00:48:06;;;;;;;6.77;4.20;;;;;;;;;;5091272;28;20568;-73
2022/12/11 00:50:33;;;;;;;7.80;5.20;;;;;;;;;;5092222;28;20447;-73
2022/12/11 00:53:00;;;;;;;6.07;5.30;;;;;;;;;;5091557;28;20450;-73
2022/12/11 00:55:28;;;;;;;5.53;3.70;;;;;;;;;;5092554;28;20445;-73
2022/12/11 00:57:55;;;;;;;7.60;3.83;;;;;;;;;;5091176;28;20937;-73
2022/12/11 01:00:23;;;;;;;9.80;5.00;;;;;;;;;;5092216;28;20462;-72
2022/12/11 01:02:51;;;;;;;8.90;4.07;;;;;;;;;;5091243;28;20990;-73
2022/12/11 01:05:18;;;;;;;7.07;3.90;;;;;;;;;;5091603;28;20449;-73
2022/12/11 01:07:46;;;;;;;6.37;4.10;;;;;;;;;;5091490;28;20449;-73
2022/12/11 01:10:25;;;;;;;5.60;3.87;;;;;;;;;;5077948;28;20458;-74
2022/12/11 01:12:53;;;;;;;5.13;4.30;;;;;;;;;;5091176;28;20452;-73
2022/12/11 01:15:21;;;;;;;7.43;4.93;;;;;;;;;;5091654;28;20462;-73
2022/12/11 01:17:49;;;;;;;6.30;4.03;;;;;;;;;;5091257;28;20562;-69
2022/12/11 01:20:18;;;;;;;6.23;4.53;;;;;;;;;;5091230;28;20456;-71
2022/12/11 01:22:45;;;;;;;18.70;6.50;;;;;;;;;;5091501;28;20558;-73
2022/12/11 01:25:12;;;;;;;7.03;3.87;;;;;;;;;;5090928;28;20458;-73
2022/12/11 01:27:39;;;;;;;6.63;4.07;;;;;;;;;;5091378;28;20468;-73
2022/12/11 01:30:08;;;;;;;8.03;4.90;;;;;;;;;;5090574;28;20477;-73
2022/12/11 01:32:35;;;;;;;4.60;4.20;;;;;;;;;;5091047;28;20447;-72
2022/12/11 01:35:03;;;;;;;7.93;4.37;;;;;;;;;;5091000;28;20455;-73
2022/12/11 01:37:32;;;;;;;13.10;5.10;;;;;;;;;;5091923;28;20792;-73
2022/12/11 01:40:00;;;;;;;5.13;4.63;;;;;;;;;;5090098;28;20469;-73
2022/12/11 01:42:28;;;;;;;12.03;4.00;;;;;;;;;;5090988;28;20443;-73
2022/12/11 01:45:23;;;;;;;4.63;4.10;;;;;;;;;;5090562;28;20589;-73
2022/12/11 01:47:50;;;;;;;7.13;5.03;;;;;;;;;;5090879;28;20799;-71
2022/12/11 01:50:18;;;;;;;12.43;5.30;;;;;;;;;;5091005;28;20646;-72
2022/12/11 01:52:47;;;;;;;9.60;4.70;;;;;;;;;;5091535;28;20459;-73
2022/12/11 01:55:16;;;;;;;4.50;3.87;;;;;;;;;;5091216;28;20451;-73
2022/12/11 01:57:44;;;;;;;6.80;5.10;;;;;;;;;;5091041;28;20447;-72
2022/12/11 02:00:12;;;;;;;5.40;4.87;;;;;;;;;;5090918;28;20534;-73
2022/12/11 02:02:39;;;;;;;8.43;5.03;;;;;;;;;;5090422;28;20454;-73
2022/12/11 02:05:07;;;;;;;3.97;3.33;;;;;;;;;;5090358;28;20450;-70
2022/12/11 02:07:38;;;;;;;12.37;4.60;;;;;;;;;;5090847;28;20812;-72
2022/12/11 02:10:07;;;;;;;6.83;4.70;;;;;;;;;;5076540;28;20458;-73
2022/12/11 02:12:38;;;;;;;5.67;2.93;;;;;;;;;;5090166;28;20452;-73
2022/12/11 02:15:10;;;;;;;6.63;4.67;;;;;;;;;;5090591;28;20474;-73
2022/12/11 02:17:41;;;;;;;5.83;3.33;;;;;;;;;;5090339;28;20460;-73
2022/12/11 02:20:10;;;;;;;5.93;5.33;;;;;;;;;;5090109;28;20748;-73
2022/12/11 02:22:49;;;;;;;8.97;5.47;;;;;;;;;;5076909;28;20451;-73
2022/12/11 02:25:21;;;;;;;9.83;4.57;;;;;;;;;;5090808;28;20450;-71
2022/12/11 02:27:55;;;;;;;4.20;3.77;;;;;;;;;;5090362;28;20443;-69
2022/12/11 02:30:24;;;;;;;4.93;4.20;;;;;;;;;;5090201;28;20798;-73
2022/12/11 02:32:54;;;;;;;8.33;4.20;;;;;;;;;;5089868;28;20789;-72
2022/12/11 02:35:22;;;;;;;8.53;4.33;;;;;;;;;;5090822;28;20448;-73
2022/12/11 02:37:52;;;;;;;12.60;5.43;;;;;;;;;;5090358;28;20455;-73
2022/12/11 02:40:22;;;;;;;7.90;4.70;;;;;;;;;;5090379;28;20452;-73
2022/12/11 02:42:50;;;;;;;5.67;4.77;;;;;;;;;;5089999;28;20448;-70
2022/12/11 02:45:17;;;;;;;11.60;5.53;;;;;;;;;;5090549;28;20447;-71
2022/12/11 02:47:47;;;;;;;12.20;5.17;;;;;;;;;;5091137;28;20463;-73
2022/12/11 02:50:16;;;;;;;9.97;6.60;;;;;;;;;;5091848;28;20480;-73
2022/12/11 02:52:45;;;;;;;5.07;4.40;;;;;;;;;;5094854;28;20457;-73
2022/12/11 02:55:14;;;;;;;7.27;4.53;;;;;;;;;;5094953;28;20452;-72
2022/12/11 02:57:45;;;;;;;8.80;5.80;;;;;;;;;;5094745;28;20458;-73
2022/12/11 03:00:13;;;;;;;8.23;4.57;;;;;;;;;;5095080;28;20448;-73
2022/12/11 03:02:41;;;;;;;4.87;3.33;;;;;;;;;;5095374;28;20965;-73
2022/12/11 03:05:10;;;;;;;6.27;4.27;;;;;;;;;;5096506;28;20471;-74
2022/12/11 03:07:38;;;;;;;6.43;3.30;;;;;;;;;;5101508;28;20501;-74
2022/12/11 03:10:07;;;;;;;9.93;5.00;;;;;;;;;;5087532;28;20460;-71
2022/12/11 03:12:36;;;;;;;7.83;4.00;;;;;;;;;;5099763;28;20950;-71
2022/12/11 03:15:06;;;;;;;7.20;4.37;;;;;;;;;;5099133;28;20452;-71
2022/12/11 03:17:36;;;;;;;7.67;4.53;;;;;;;;;;5100720;28;20463;-73
2022/12/11 03:20:07;;;;;;;7.87;4.40;;;;;;;;;;5100428;28;20453;-71
2022/12/11 03:22:38;;;;;;;6.03;5.00;;;;;;;;;;5087242;28;20444;-72
2022/12/11 03:25:07;;;;;;;7.43;5.10;;;;;;;;;;5101330;28;20479;-71
2022/12/11 03:27:37;;;;;;;11.17;5.13;;;;;;;;;;5102914;28;20455;-71
2022/12/11 03:30:06;;;;;;;14.13;5.20;;;;;;;;;;5101649;28;20473;-71
2022/12/11 03:32:37;;;;;;;6.03;4.40;;;;;;;;;;5101234;28;20478;-71
2022/12/11 03:35:08;;;;;;;10.07;5.00;;;;;;;;;;5101594;28;20440;-71
2022/12/11 03:37:38;;;;;;;9.77;6.73;;;;;;;;;;5099255;28;20441;-71
2022/12/11 03:40:08;;;;;;;10.93;6.77;;;;;;;;;;5093134;28;20572;-70
2022/12/11 03:42:36;;;;;;;9.50;4.77;;;;;;;;;;5093531;28;20451;-70
2022/12/11 03:45:04;;;;;;;6.17;4.60;;;;;;;;;;5092893;28;20483;-71
2022/12/11 03:47:31;;;;;;;8.47;3.97;;;;;;;;;;5093663;28;20459;-71
2022/12/11 03:50:00;;;;;;;5.47;2.63;;;;;;;;;;5092288;28;20483;-71
2022/12/11 03:52:28;;;;;;;5.60;3.57;;;;;;;;;;5093050;28;20447;-71
2022/12/11 03:54:58;;;;;;;6.63;3.20;;;;;;;;;;5092203;28;20459;-72
2022/12/11 03:57:29;;;;;;;6.27;3.20;;;;;;;;;;5092670;28;20455;-70
2022/12/11 03:59:57;;;;;;;4.63;3.77;;;;;;;;;;5079373;28;20454;-71
2022/12/11 04:02:24;;;;;;;11.60;4.67;;;;;;;;;;5091430;28;20443;-71
2022/12/11 04:04:51;;;;;;;5.83;2.90;;;;;;;;;;5091887;28;20479;-71
2022/12/11 04:07:18;;;;;;;8.17;4.70;;;;;;;;;;5092948;28;20456;-70
2022/12/11 04:09:45;;;;;;;7.60;4.47;;;;;;;;;;5079071;28;20940;-70
2022/12/11 04:12:14;;;;;;;6.07;5.03;;;;;;;;;;5091823;28;20443;-71
2022/12/11 04:25:41;;;;;;;4.30;3.90;;;0.00;1.00;;;;;;5092596;28;20425;-73
2022/12/11 04:28:10;;;;;;;4.87;4.33;;;0.30;99.90;;;;;;5091848;28;20670;-73
2022/12/11 04:30:37;;;;;;;5.17;4.00;;;0.20;1.00;;;;;;5092192;28;20454;-73
2022/12/11 04:33:04;;;;;;;9.20;3.60;;;0.00;99.90;;;;;;5091840;28;20451;-73
2022/12/11 04:35:30;;;;;;;12.10;5.63;;;0.00;1.00;;;;;;5092607;28;20459;-73
2022/12/11 04:37:57;;;;;;;5.70;3.93;;;0.20;1.00;;;;;;5091898;28;20450;-71
2022/12/11 04:40:24;;;;;;;5.70;3.70;;;0.20;1.00;;;;;;5092296;28;20473;-73
2022/12/11 04:42:51;;;;;;;7.07;3.07;;;0.10;99.90;;;;;;5092090;28;20445;-73
2022/12/11 04:45:20;;;;;;;8.90;4.30;;;0.20;99.90;;;;;;5079260;28;20482;-73
2022/12/11 04:47:46;;;;;;;7.87;4.60;;;0.10;1.00;;;;;;5091865;28;20465;-71
2022/12/11 04:50:15;;;;;;;5.17;3.23;;;0.10;99.90;;;;;;5091867;28;20485;-73
2022/12/11 04:52:42;;;;;;;11.13;5.10;;;0.10;99.90;;;;;;5092620;28;20443;-72
2022/12/11 04:55:10;;;;;;;5.10;4.40;;;0.10;99.90;;;;;;5091718;28;20449;-73
2022/12/11 04:57:37;;;;;;;6.90;4.10;;;0.00;99.90;;;;;;5091758;28;20935;-73
2022/12/11 05:00:06;;;;;;;17.80;4.93;;;0.10;1.00;;;;;;5091621;28;20453;-73
2022/12/11 05:02:36;;;;;;;8.23;4.20;;;0.00;1.00;;;;;;5092208;28;20441;-74
2022/12/11 05:05:04;;;;;;;5.70;3.73;;;0.10;99.90;;;;;;5091078;28;20512;-73
2022/12/11 05:07:31;;;;;;;3.40;3.00;;;0.20;99.90;;;;;;5091506;28;20934;-73
2022/12/11 05:09:58;;;;;;;8.90;3.40;;;0.20;1.00;;;;;;5076889;28;20463;-73
2022/12/11 05:12:25;;;;;;;8.60;4.50;;;0.30;1.00;;;;;;5091573;28;20454;-73
2022/12/11 05:14:52;;;;;;;6.23;3.33;;;0.20;99.90;;;;;;5090710;28;20465;-72
2022/12/11 05:17:20;;;;;;;5.07;3.83;;;0.40;1.00;;;;;;5091417;28;20469;-73
2022/12/11 05:19:50;;;;;;;7.77;3.67;;;0.40;99.90;;;;;;5091318;28;21037;-70
2022/12/11 05:22:18;;;;;;;11.43;3.83;;;0.40;99.90;;;;;;5091452;28;20449;-73
2022/12/11 05:24:45;;;;;;;7.80;3.87;;;0.30;1.00;;;;;;5091861;28;20484;-73
2022/12/11 05:27:13;;;;;;;11.20;5.80;;;0.30;4.30;;;;;;5091154;28;20449;-72
2022/12/11 05:29:39;;;;;;;6.73;4.20;;;0.30;1.00;;;;;;5091689;28;20451;-73
2022/12/11 05:32:06;;;;;;;7.90;4.30;;;0.20;1.00;;;;;;5090232;28;20450;-73
2022/12/11 05:34:33;;;;;;;5.13;4.47;;;-0.20;1.00;;;;;;5091745;28;20482;-73
2022/12/11 05:37:02;;;;;;;5.40;4.27;;;-0.10;1.00;;;;;;5091304;28;20510;-73
2022/12/11 05:39:28;;;;;;;5.87;4.63;;;-0.10;1.00;;;;;;5091544;28;20456;-73
2022/12/11 05:41:55;;;;;;;6.40;4.53;;;0.10;99.90;;;;;;5090617;28;20810;-73
2022/12/11 05:44:22;;;;;;;8.33;3.30;;;0.00;99.90;;;;;;5091633;28;20481;-73
2022/12/11 05:46:49;;;;;;;5.03;4.47;;;0.20;99.90;;;;;;5090852;28;20455;-70
2022/12/11 05:49:16;;;;;;;6.07;3.63;;;0.00;1.00;;;;;;5091014;28;21025;-68
2022/12/11 05:51:43;;;;;;;6.40;4.30;;;0.20;27.80;;;;;;5090786;28;20787;-71
2022/12/11 05:54:11;;;;;;;6.43;5.10;;;0.30;16.90;;;;;;5090619;28;20482;-71
2022/12/11 05:56:38;;;;;;;6.70;3.77;;;0.30;95.20;;;;;;5091319;28;20470;-71
2022/12/11 05:59:06;;;;;;;4.63;3.50;;;0.30;99.90;;;;;;5090442;28;20535;-70
2022/12/11 06:01:36;;;;;;;9.70;4.87;;;0.20;99.90;;;;;;5090898;28;20443;-70
2022/12/11 06:04:05;;;;;;;4.53;3.13;;;-0.10;99.90;;;;;;5090557;28;20985;-70
2022/12/11 06:06:32;;;;;;;9.80;5.97;;;0.30;28.20;;;;;;5091073;28;20520;-71
2022/12/11 06:09:00;;;;;;;6.57;4.20;;;0.40;1.00;;;;;;5081123;28;20562;-74
2022/12/11 06:11:29;;;;;;;9.20;4.53;;;0.40;1.00;;;;;;5086699;28;20454;-71
2022/12/11 06:13:56;;;;;;;7.80;4.77;;;0.50;99.90;;;;;;5089929;28;20450;-71
2022/12/11 06:16:24;;;;;;;7.63;3.27;;;0.40;1.00;;;;;;5091064;28;20448;-71
2022/12/11 06:18:51;;;;;;;6.20;3.93;;;0.30;1.00;;;;;;5090185;28;20778;-68
2022/12/11 06:21:20;;;;;;;6.80;3.70;;;0.40;99.90;;;;;;5090647;28;20804;-70
2022/12/11 06:23:49;;;;;;;6.40;5.53;;;0.40;1.00;;;;;;5090186;28;20460;-71
2022/12/11 06:26:17;;;;;;;12.63;5.73;;;0.30;1.00;;;;;;5093585;28;20460;-70
2022/12/11 06:28:45;;;;;;;8.83;5.83;;;0.20;1.00;;;;;;5095031;28;20447;-71
2022/12/11 06:31:13;;;;;;;5.53;4.60;;;-0.20;99.90;;;;;;5094537;28;20447;-71
2022/12/11 06:33:40;;;;;;;7.77;6.70;;;0.00;99.90;;;;;;5094623;28;20459;-71
2022/12/11 06:36:10;;;;;;;6.77;4.40;;;0.00;99.90;;;;;;5094892;28;20558;-71
2022/12/11 06:38:37;;;;;;;7.20;5.07;;;0.10;1.00;;;;;;5095214;28;20458;-71
2022/12/11 06:41:05;;;;;;;7.33;4.67;;;0.00;99.90;;;;;;5094414;28;20453;-71
2022/12/11 06:43:33;;;;;;;7.73;4.27;;;-0.10;99.90;;;;;;5094741;28;20450;-71
2022/12/11 06:46:03;;;;;;;7.93;5.97;;;-0.20;99.90;;;;;;5094144;28;20491;-71
2022/12/11 06:48:30;;;;;;;4.07;2.70;;;0.50;1.00;;;;;;5094864;28;20478;-71
2022/12/11 06:50:57;;;;;;;6.77;4.10;;;0.40;1.00;;;;;;5093787;28;20453;-70
2022/12/11 06:53:24;;;;;;;10.30;5.17;;;;;;;;;;5094969;28;20445;-70
2022/12/11 06:55:51;;;;;;;5.37;3.13;;;;;;;;;;5094312;28;20461;-70
2022/12/11 06:58:19;;;;;;;10.53;3.70;;;;;;;;;;5094486;28;20959;-70
2022/12/11 07:00:46;;;;;;;4.17;2.97;;;;;;;;;;5094242;28;20448;-67
2022/12/11 07:03:14;;;;;;;7.03;3.73;;;;;;;;;;5094694;28;20442;-70
2022/12/11 07:05:41;;;;;;;7.70;5.17;;;;;;;;;;5094249;28;20488;-70
2022/12/11 07:08:08;;;;;;;8.77;5.20;;;;;;;;;;5091288;28;20449;-70
2022/12/11 07:10:35;;;;;;;5.60;2.97;;;0.00;1.00;;;;;;5082294;28;20449;-70
2022/12/11 07:13:02;;;;;;;3.60;2.37;;;-1.00;99.90;;;;;;5093312;28;20441;-70
2022/12/11 07:15:29;;;;;;;9.20;5.03;;;-1.20;99.90;;;;;;5094156;28;20465;-71
2022/12/11 07:17:55;;;;;;;4.83;3.80;;;-1.10;99.90;;;;;;5093001;28;20945;-71
2022/12/11 07:20:24;;;;;;;4.17;3.70;;;-1.30;1.00;;;;;;5093738;28;20801;-71
2022/12/11 07:22:50;;;;;;;6.07;4.03;;;-1.30;99.90;;;;;;5093316;28;20440;-67
2022/12/11 07:25:17;;;;;;;6.20;5.53;;;-1.10;99.90;;;;;;5094005;28;20480;-72
2022/12/11 07:27:44;;;;;;;4.70;3.50;;;-1.30;48.20;;;;;;5094088;28;20441;-73
2022/12/11 07:30:12;;;;;;;3.83;2.93;;;-1.40;99.90;;;;;;5092846;28;20445;-71
2022/12/11 07:32:39;;;;;;;3.70;3.40;;;-1.30;99.90;;;;;;5093783;28;20449;-71
2022/12/11 07:35:06;;;;;;;13.50;3.90;;;-1.50;99.90;;;;;;5092696;28;20452;-71
2022/12/11 07:37:34;;;;;;;4.90;3.30;;;-1.40;99.90;;;;;;5092411;28;20453;-70
2022/12/11 07:40:01;;;;;;;6.43;4.43;;;-1.30;99.90;;;;;;5092696;28;20996;-73
2022/12/11 07:42:28;;;;;;;4.93;2.03;;;-0.60;1.00;;;;;;5094199;28;20499;-71
2022/12/11 07:44:55;;;;;;;10.43;3.80;;;-0.30;1.00;;;;;;5092715;28;20487;-70
2022/12/11 07:47:22;;;;;;;5.57;4.73;;;-0.50;1.00;;;;;;5093552;28;20464;-70
2022/12/11 07:49:49;;;;;;;5.07;4.47;;;-0.60;52.20;;;;;;5092356;28;20483;-70
2022/12/11 07:52:16;;;;;;;5.03;3.33;;;;;;;;;;5094060;28;20449;-70
2022/12/11 07:54:45;;;;;;;7.97;4.30;;;;;;;;;;5093551;28;20457;-70
2022/12/11 07:57:12;;;;;;;6.63;4.00;;;;;;;;;;5093625;28;20470;-70
2022/12/11 07:59:38;;;;;;;8.37;5.73;;;-0.40;99.90;;;;;;5093187;28;20445;-72
2022/12/11 08:02:05;;;;;;;4.60;3.47;;;0.10;51.40;;;;;;5093130;28;20455;-71
2022/12/11 08:04:32;;;;;;;7.20;5.13;;;0.20;99.90;;;;;;5093072;28;20442;-71
2022/12/11 08:06:59;;;;;;;11.87;4.23;;;0.00;99.90;;;;;;5092450;28;20813;-71
2022/12/11 08:09:26;;;;;;;8.13;5.03;;;-0.20;34.50;;;;;;5080405;28;20464;-71
2022/12/11 08:11:54;;;;;;;6.37;3.07;;;-0.10;99.90;;;;;;5091264;28;20458;-70
2022/12/11 08:14:21;;;;;;;10.47;6.33;;;0.00;99.90;;;;;;5092742;28;20783;-72
2022/12/11 08:16:48;;;;;;;3.63;3.27;;;0.00;99.90;;;;;;5092579;28;20459;-67
2022/12/11 08:19:15;;;;;;;9.00;5.63;;;0.10;1.00;;;;;;5092861;28;20807;-71
2022/12/11 08:21:42;;;;;;;6.47;3.80;;;0.40;99.90;;;;;;5092318;28;20458;-73
2022/12/11 08:24:09;;;;;;;4.87;3.17;;;0.50;1.00;;;;;;5091741;28;20542;-70
2022/12/11 08:26:36;;;;;;;12.00;4.60;;;0.50;1.00;;;;;;5092543;28;20870;-69
2022/12/11 08:29:04;;;;;;;8.00;3.37;;;0.50;1.00;;;;;;5091516;28;20449;-70
2022/12/11 08:31:32;;;;;;;4.87;2.80;;;;;;;;;;5092214;28;20452;-70
2022/12/11 08:33:59;;;;;;;6.97;5.40;;;;;;;;;;5092035;28;20840;-70
2022/12/11 08:36:26;;;;;;;7.90;3.77;;;;;;;;;;5092820;28;20826;-70
2022/12/11 08:38:55;;;;;;;6.20;3.63;;;;;;;;;;5092027;28;20455;-70
2022/12/11 08:41:23;;;;;;;9.80;5.27;;;;;;;;;;5092040;28;20980;-71
2022/12/11 08:43:53;;;;;;;8.83;3.73;;;;;;;;;;5092069;28;20810;-70
2022/12/11 08:46:23;;;;;;;5.03;3.87;;;;;;;;;;5092650;28;20485;-71
2022/12/11 08:48:50;;;;;;;6.10;3.90;;;;;;;;;;5091102;28;21097;-70
2022/12/11 08:51:18;;;;;;;9.33;4.87;;;;;;;;;;5092124;28;20447;-71
2022/12/11 08:53:46;;;;;;;6.83;3.87;;;;;;;;;;5092481;28;20502;-72
2022/12/11 08:56:14;;;;;;;7.13;4.93;;;;;;;;;;5092305;28;20576;-71
2022/12/11 08:58:41;;;;;;;4.40;3.50;;;;;;;;;;5092502;28;20448;-70
2022/12/11 09:01:09;;;;;;;6.27;4.30;;;;;;;;;;5091022;28;20448;-70
2022/12/11 09:03:38;;;;;;;7.87;4.67;;;;;;;;;;5092409;28;20504;-70
2022/12/11 09:06:06;;;;;;;7.10;5.30;;;;;;;;;;5090959;28;20510;-70
2022/12/11 09:08:33;;;;;;;7.23;5.17;;;;;;;;;;5086312;28;20456;-71
2022/12/11 09:11:03;;;;;;;4.70;3.43;;;;;;;;;;5082141;28;20468;-70
2022/12/11 09:13:30;;;;;;;5.47;4.70;;;;;;;;;;5091220;28;20464;-70
2022/12/11 09:15:57;;;;;;;5.73;4.10;;;;;;;;;;5090870;28;20452;-70
2022/12/11 09:18:24;;;;;;;8.07;3.40;;;;;;;;;;5091818;28;20456;-70
2022/12/11 09:20:59;;;;;;;10.77;6.10;;;;;;;;;;5090412;28;20451;-69
2022/12/11 09:23:27;;;;;;;7.10;3.97;;;;;;;;;;5091660;28;20443;-71
2022/12/11 09:25:54;;;;;;;5.60;3.60;;;;;;;;;;5090462;28;20484;-70
2022/12/11 09:28:21;;;;;;;6.37;4.20;;;;;;;;;;5090905;28;20451;-70
2022/12/11 09:30:48;;;;;;;10.37;5.30;;;;;;;;;;5090870;28;20452;-67
2022/12/11 09:33:15;;;;;;;5.13;3.30;;;;;;;;;;5091344;28;20452;-70
2022/12/11 09:35:43;;;;;;;7.77;4.97;;;;;;;;;;5091830;28;20456;-70
2022/12/11 09:38:11;;;;;;;13.20;5.10;;;;;;;;;;5090982;28;20510;-70
2022/12/11 09:40:42;;;;;;;9.13;5.30;;;;;;;;;;5091409;28;20476;-70
2022/12/11 09:43:15;;;;;;;5.93;5.20;;;;;;;;;;5091071;28;20445;-73
2022/12/11 09:45:42;;;;;;;5.93;3.30;;;;;;;;;;5091339;28;20478;-70
2022/12/11 09:48:11;;;;;;;6.50;5.33;;;;;;;;;;5090868;28;20497;-70
2022/12/11 09:50:38;;;;;;;6.73;4.47;;;;;;;;;;5090981;28;20460;-70
2022/12/11 09:53:08;;;;;;;12.83;6.17;;;;;;;;;;5090764;28;20449;-70
2022/12/11 09:55:41;;;;;;;6.43;4.17;;;;;;;;;;5091555;28;20445;-70
2022/12/11 09:58:14;;;;;;;8.87;4.20;;;;;;;;;;5090773;28;20450;-70
2022/12/11 10:00:44;;;;;;;5.97;4.80;;;;;;;;;;5090501;28;20452;-71
2022/12/11 10:03:23;;;;;;;8.60;5.80;;;;;;;;;;5077786;28;20448;-72
2022/12/11 10:05:53;;;;;;;8.33;4.20;;;;;;;;;;5090301;28;20477;-68
2022/12/11 10:08:24;;;;;;;8.00;4.67;;;;;;;;;;5087865;28;20485;-71
2022/12/11 10:10:58;;;;;;;9.77;4.90;;;;;;;;;;5080638;28;20445;-71
2022/12/11 10:13:29;;;;;;;8.67;5.73;;;;;;;;;;5090881;28;20543;-72
2022/12/11 10:15:59;;;;;;;12.70;5.13;;;;;;;;;;5090246;28;20453;-73
2022/12/11 10:18:30;;;;;;;8.40;5.10;;;;;;;;;;5090831;28;20458;-71
2022/12/11 10:20:57;;;;;;;7.80;4.40;;;;;;;;;;5089534;28;20445;-71
2022/12/11 10:23:28;;;;;;;7.43;4.60;;;;;;;;;;5090896;28;20456;-71
2022/12/11 10:26:02;;;;;;;7.07;5.13;;;;;;;;;;5089720;28;20469;-71
2022/12/11 10:28:29;;;;;;;9.93;4.80;;;;;;;;;;5090295;28;20499;-71
2022/12/11 10:31:03;;;;;;;5.80;3.87;;;;;;;;;;5089627;28;20452;-71
2022/12/11 10:33:34;;;;;;;5.60;4.50;;;;;;;;;;5090603;28;20932;-71
2022/12/11 10:36:01;;;;;;;7.67;3.40;;;;;;;;;;5090549;28;20460;-71
2022/12/11 10:38:30;;;;;;;9.30;4.20;;;;;;;;;;5091104;28;20449;-71
2022/12/11 10:41:00;;;;;;;7.40;4.50;;;;;;;;;;5090096;28;20806;-71
2022/12/11 10:43:34;;;;;;;5.27;4.40;;;;;;;;;;5090780;28;20831;-71
2022/12/11 10:46:01;;;;;;;7.57;4.20;;;;;;;;;;5090441;28;20488;-71
2022/12/11 10:48:28;;;;;;;8.27;3.37;;;;;;;;;;5090884;28;20476;-71
2022/12/11 10:51:00;;;;;;;5.70;4.00;;;;;;;;;;5090021;28;20450;-71
2022/12/11 10:53:27;;;;;;;5.47;3.30;;;;;;;;;;5090875;28;20801;-71
2022/12/11 10:55:56;;;;;;;7.00;4.80;;;;;;;;;;5090319;28;20600;-71
2022/12/11 10:58:26;;;;;;;7.17;3.97;;;;;;;;;;5090885;28;20499;-72
2022/12/11 11:01:03;;;;;;;11.37;4.57;;;;;;;;;;5089833;28;20813;-72
2022/12/11 11:03:30;;;;;;;9.17;4.70;;;;;;;;;;5090950;28;20838;-71
2022/12/11 11:06:04;;;;;;;7.60;4.50;;;;;;;;;;5089595;28;21002;-71
2022/12/11 11:08:38;;;;;;;8.23;4.13;;;;;;;;;;5085600;28;20457;-72
2022/12/11 11:11:07;;;;;;;8.43;3.90;;;;;;;;;;5082862;28;20453;-72
2022/12/11 11:13:36;;;;;;;5.73;3.63;;;;;;;;;;5093790;28;20460;-72
2022/12/11 11:16:05;;;;;;;9.60;5.17;;;;;;;;;;5093519;28;20884;-72
2022/12/11 11:18:32;;;;;;;7.77;4.57;;;;;;;;;;5093766;28;20510;-71
2022/12/11 11:21:00;;;;;;;7.67;4.60;;;;;;;;;;5079489;28;20444;-72
2022/12/11 11:23:27;;;;;;;10.43;5.23;;;;;;;;;;5093663;28;20453;-72
2022/12/11 11:25:56;;;;;;;10.53;5.83;;;;;;;;;;5093153;28;20482;-72
2022/12/11 11:28:24;;;;;;;4.87;3.50;;;;;;;;;;5093679;28;20456;-72
2022/12/11 11:30:57;;;;;;;7.80;5.30;;;;;;;;;;5092722;28;20451;-71
2022/12/11 11:33:25;;;;;;;9.80;5.20;;;;;;;;;;5093864;28;20454;-71
2022/12/11 11:35:53;;;;;;;6.03;3.57;;;;;;;;;;5093298;28;20478;-72
2022/12/11 11:38:22;;;;;;;9.37;4.30;;;;;;;;;;5093932;28;20461;-72
2022/12/11 11:40:51;;;;;;;14.53;5.43;;;;;;;;;;5092899;28;20448;-72
2022/12/11 11:43:22;;;;;;;6.13;4.67;;;;;;;;;;5094148;28;20445;-72
2022/12/11 11:45:52;;;;;;;13.40;6.17;;;;;;;;;;5093248;28;20553;-72
2022/12/11 11:48:32;;;;;;;7.70;5.90;;;;;;;;;;5093791;28;20506;-72
2022/12/11 11:51:04;;;;;;;7.90;5.43;;;;;;;;;;5092500;28;20508;-72
2022/12/11 11:53:31;;;;;;;8.00;5.23;;;;;;;;;;5093552;28;20466;-72
2022/12/11 11:56:03;;;;;;;7.63;5.13;;;;;;;;;;5092917;28;20504;-72
2022/12/11 11:58:36;;;;;;;8.67;4.97;;;;;;;;;;5093260;28;20549;-72
2022/12/11 12:01:03;;;;;;;11.17;4.80;;;;;;;;;;5092141;28;20470;-72
2022/12/11 12:03:32;;;;;;;9.60;4.03;;;;;;;;;;5093352;28;20463;-73
2022/12/11 12:06:05;;;;;;;8.30;5.20;;;;;;;;;;5092328;28;20826;-74
2022/12/11 12:08:42;;;;;;;7.83;4.30;;;;;;;;;;5087845;28;20954;-72
2022/12/11 12:11:16;;;;;;;7.03;3.00;;;;;;;;;;5085221;28;20437;-72
2022/12/11 12:13:46;;;;;;;11.33;6.57;;;;;;;;;;5092835;28;20446;-72
2022/12/11 12:16:16;;;;;;;11.73;4.87;;;;;;;;;;5092738;28;20454;-72
2022/12/11 12:18:50;;;;;;;8.07;5.23;;;;;;;;;;5093230;28;20889;-72
2022/12/11 12:21:19;;;;;;;11.33;4.97;;;;;;;;;;5092753;28;20450;-71
2022/12/11 12:23:54;;;;;;;13.57;6.50;;;;;;;;;;5091696;28;20446;-68
2022/12/11 12:26:25;;;;;;;10.73;6.27;;;;;;;;;;5092818;28;20480;-72
2022/12/11 12:28:55;;;;;;;8.37;5.30;;;;;;;;;;5091536;28;20444;-71
2022/12/11 12:31:32;;;;;;;8.77;6.30;;;;;;;;;;5092387;28;20438;-72
2022/12/11 12:34:04;;;;;;;6.17;4.23;;;;;;;;;;5091841;28;20809;-72
2022/12/11 12:36:36;;;;;;;11.07;6.87;;;;;;;;;;5092433;28;20818;-72
2022/12/11 12:39:07;;;;;;;10.03;7.07;;;;;;;;;;5091867;28;20497;-72
2022/12/11 12:41:38;;;;;;;12.80;6.70;;;;;;;;;;5092164;28;20445;-72
2022/12/11 12:44:13;;;;;;;9.00;4.70;;;;;;;;;;5091846;28;20477;-72
2022/12/11 12:46:57;;;;;;;13.00;7.47;;;;;;;;;;5092159;28;20474;-72
2022/12/11 12:49:39;;;;;;;8.63;5.17;;;;;;;;;;5091903;28;20479;-72
2022/12/11 12:52:07;;;;;;;9.50;7.03;;;;;;;;;;5080584;28;20654;-72
2022/12/11 12:54:36;;;;;;;17.83;6.43;;;;;;;;;;5092646;28;20487;-72
2022/12/11 12:57:04;;;;;;;10.17;6.00;;;;;;;;;;5092104;28;20807;-72
2022/12/11 12:59:31;;;;;;;10.67;5.40;;;;;;;;;;5092055;28;20792;-73
2022/12/11 13:01:59;;;;;;;11.27;6.53;;;;;;;;;;5092205;28;20438;-73
2022/12/11 13:04:28;;;;;;;11.30;7.37;;;;;;;;;;5092335;28;20451;-72
2022/12/11 13:06:57;;;;;;;10.33;6.30;;;;;;;;;;5091550;28;20491;-73
2022/12/11 13:09:25;;;;;;;16.17;8.40;;;;;;;;;;5079096;28;20820;-73
2022/12/11 13:11:56;;;;;;;9.80;6.37;;;;;;;;;;5090672;28;20825;-72
2022/12/11 13:14:26;;;;;;;11.53;7.80;;;;;;;;;;5091688;28;20443;-73
2022/12/11 13:17:04;;;;;;;20.33;8.87;;;;;;;;;;5090855;28;20448;-72
2022/12/11 13:19:33;;;;;;;9.67;5.70;;;;;;;;;;5091601;28;20445;-73
2022/12/11 13:22:03;;;;;;;13.27;6.40;;;;;;;;;;5090964;28;20453;-72
2022/12/11 13:24:32;;;;;;;11.90;7.50;;;;;;;;;;5091609;28;20486;-72
2022/12/11 13:27:09;;;;;;;9.30;6.93;;;;;;;;;;5090742;28;20962;-72
2022/12/11 13:29:38;;;;;;;12.10;5.83;;;;;;;;;;5091257;28;20446;-72
2022/12/11 13:32:20;;;;;;;16.90;7.67;;;;;;;;;;5090734;28;20449;-72
2022/12/11 13:34:52;;;;;;;10.93;6.53;;;;;;;;;;5090873;28;20915;-72
2022/12/11 13:37:25;;;;;;;8.23;5.70;;;;;;;;;;5091916;28;20444;-72
2022/12/11 13:39:53;;;;;;;15.27;8.37;;;;;;;;;;5090931;28;20905;-72
2022/12/11 13:42:22;;;;;;;8.40;4.87;;;;;;;;;;5091817;28;20454;-72
2022/12/11 13:44:50;;;;;;;8.90;5.77;;;;;;;;;;5091109;28;20451;-72
2022/12/11 13:47:19;;;;;;;10.53;5.97;;;;;;;;;;5091567;28;20497;-71
2022/12/11 13:49:48;;;;;;;9.37;6.10;;;;;;;;;;5091384;28;20480;-71
2022/12/11 13:52:17;;;;;;;9.27;6.00;;;;;;;;;;5091480;28;20452;-72
2022/12/11 13:54:49;;;;;;;13.30;5.20;;;;;;;;;;5091694;28;20635;-72
2022/12/11 13:57:17;;;;;;;7.87;5.07;;;;;;;;;;5091910;28;20456;-71
2022/12/11 13:59:47;;;;;;;6.53;5.27;;;;;;;;;;5091125;28;20449;-72
2022/12/11 14:02:18;;;;;;;12.00;7.23;;;;;;;;;;5091547;28;20442;-72
2022/12/11 14:04:46;;;;;;;8.03;5.07;;;;;;;;;;5071067;28;20480;-72
2022/12/11 14:07:13;;;;;;;11.10;7.70;;;;;;;;;;5084166;28;20487;-71
2022/12/11 14:09:43;;;;;;;17.00;7.43;;;;;;;;;;5078954;28;20458;-72
2022/12/11 14:12:17;;;;;;;15.70;8.47;;;;;;;;;;5090001;28;20446;-72
2022/12/11 14:14:46;;;;;;;14.33;8.70;;;;;;;;;;5090942;28;20446;-72
2022/12/11 14:17:14;;;;;;;9.07;6.10;;;;;;;;;;5090218;28;20458;-72
2022/12/11 14:19:46;;;;;;;9.37;7.47;;;;;;;;;;5090427;28;20504;-72
2022/12/11 14:22:18;;;;;;;12.67;6.17;;;;;;;;;;5090695;28;20433;-72
2022/12/11 14:24:48;;;;;;;10.03;6.00;;;;;;;;;;5091067;28;20446;-72
2022/12/11 14:27:18;;;;;;;13.43;6.63;;;;;;;;;;5090760;28;20485;-72
2022/12/11 14:29:45;;;;;;;11.80;7.27;;;;;;;;;;5090295;28;20453;-72
2022/12/11 14:32:18;;;;;;;10.03;6.50;;;;;;;;;;5089827;28;20944;-72